Time;durP1;ratioP1;P1;durP2;ratioP2;P2;SDS_P1;SDS_P2;PMS_P1;PMS_P2;Temp;Humidity;BMP_temperature;BMP_pressure;BME280_temperature;BME280_humidity;BME280_pressure;Samples;Min_cycle;Max_cycle;Signal;HPM_P1;HPM_P2
2022/05/06 00:01:56;;;;;;;31.13;14.55;;;;;;;14.84;56.26;102614.06;5158208;28;20416;-47
2022/05/06 00:04:29;;;;;;;24.80;15.38;;;;;;;14.74;56.37;102611.38;5164671;28;20430;-48
2022/05/06 00:07:02;;;;;;;21.00;15.05;;;;;;;14.68;56.42;102603.94;5163398;28;20447;-46
2022/05/06 00:09:34;;;;;;;23.67;14.85;;;;;;;14.75;56.46;102625.50;5164137;28;20417;-45
2022/05/06 00:12:08;;;;;;;29.52;14.98;;;;;;;14.73;56.58;102619.47;5163500;28;20432;-48
2022/05/06 00:14:41;;;;;;;21.08;15.20;;;;;;;14.57;56.65;102612.00;5164774;28;20416;-47
2022/05/06 00:17:14;;;;;;;21.63;14.40;;;;;;;14.65;56.63;102620.16;5170076;28;20409;-46
2022/05/06 00:19:48;;;;;;;23.60;15.57;;;;;;;14.57;56.72;102609.34;5163272;28;20412;-50
2022/05/06 00:22:20;;;;;;;27.13;15.85;;;;;;;14.58;56.75;102608.34;5160208;28;20452;-50
2022/05/06 00:24:52;;;;;;;32.73;17.37;;;;;;;14.53;56.78;102611.41;5156609;28;20436;-49
2022/05/06 00:27:25;;;;;;;25.73;17.13;;;;;;;14.49;57.00;102603.78;5163566;28;20452;-47
2022/05/06 00:29:57;;;;;;;27.13;18.27;;;;;;;14.49;56.89;102603.78;5157000;28;20418;-51
2022/05/06 00:32:30;;;;;;;35.28;19.67;;;;;;;14.46;56.93;102598.75;5164698;28;20426;-49
2022/05/06 00:35:04;;;;;;;33.83;20.20;;;;;;;14.39;57.07;102589.63;5163440;28;20829;-49
2022/05/06 00:37:36;;;;;;;37.65;22.63;;;;;;;14.39;57.02;102592.28;5161238;28;20435;-48
2022/05/06 00:40:11;;;;;;;36.65;21.48;;;;;;;14.42;57.18;102597.31;5157065;28;20850;-50
2022/05/06 00:42:43;;;;;;;37.92;21.10;;;;;;;14.36;57.11;102593.38;5161420;28;20773;-49
2022/05/06 00:45:15;;;;;;;38.53;22.17;;;;;;;14.27;57.24;102592.34;5163687;28;20746;-48
2022/05/06 00:47:48;;;;;;;42.97;23.85;;;;;;;14.26;57.33;102595.97;5160480;28;20421;-49
2022/05/06 00:50:22;;;;;;;47.03;25.95;;;;;;;14.22;57.47;102581.28;5161012;28;21158;-46
2022/05/06 00:52:56;;;;;;;54.80;27.63;;;;;;;13.60;57.45;102486.53;5160968;28;20429;-48
2022/05/06 00:55:29;;;;;;;55.08;27.77;;;;;;;14.28;57.31;102590.56;5162427;28;20514;-47
2022/05/06 00:58:02;;;;;;;77.68;26.95;;;;;;;14.27;57.39;102591.50;5164642;28;20982;-50
2022/05/06 01:00:35;;;;;;;68.20;33.17;;;;;;;14.12;57.45;102585.72;5162317;28;20445;-46
2022/05/06 01:03:07;;;;;;;77.95;32.33;;;;;;;14.11;57.71;102597.28;5164847;28;20429;-46
2022/05/06 01:05:41;;;;;;;64.70;32.05;;;;;;;13.88;57.91;102577.16;5164625;28;20828;-46
2022/05/06 01:08:14;;;;;;;84.90;32.72;;;;;;;13.92;58.04;102599.81;5163324;28;20789;-48
2022/05/06 01:10:47;;;;;;;98.80;35.45;;;;;;;13.87;58.15;102602.00;5163132;28;20424;-49
2022/05/06 01:13:20;;;;;;;101.88;37.60;;;;;;;13.89;58.02;102605.38;5160968;28;20428;-50
2022/05/06 01:15:56;;;;;;;93.68;37.78;;;;;;;13.84;58.03;102596.00;5159342;28;20416;-49
2022/05/06 01:18:29;;;;;;;121.93;35.45;;;;;;;13.89;58.03;102608.03;5164140;28;20428;-50
2022/05/06 01:21:06;;;;;;;99.22;41.95;;;;;;;13.87;58.19;102620.59;5161875;28;20421;-49
2022/05/06 01:23:39;;;;;;;102.15;39.97;;;;;;;13.75;58.27;102599.41;5162274;28;20437;-50
2022/05/06 01:26:12;;;;;;;93.07;41.35;;;;;;;13.82;58.37;102615.69;5163371;28;20451;-46
2022/05/06 01:28:45;;;;;;;94.68;41.67;;;;;;;13.86;58.39;102613.59;5163507;28;20505;-47
2022/05/06 01:31:22;;;;;;;106.50;46.08;;;;;;;13.80;58.47;102588.41;5164004;28;20496;-48
2022/05/06 01:33:55;;;;;;;117.60;49.88;;;;;;;13.96;58.46;102607.38;5162691;28;20417;-50
2022/05/06 01:36:29;;;;;;;115.00;46.80;;;;;;;13.96;58.39;102601.22;5159571;28;20583;-49
2022/05/06 01:39:03;;;;;;;123.78;51.42;;;;;;;14.03;58.50;102597.94;5159140;28;20429;-52
2022/05/06 01:41:37;;;;;;;126.47;54.00;;;;;;;14.07;58.48;102598.53;5164263;28;20437;-47
2022/05/06 01:44:13;;;;;;;123.25;51.58;;;;;;;14.10;58.63;102611.56;5162354;28;20419;-49
2022/05/06 01:46:46;;;;;;;122.47;51.75;;;;;;;14.04;58.75;102599.63;5162702;28;20423;-47
2022/05/06 01:49:19;;;;;;;156.02;53.53;;;;;;;13.81;58.87;102574.13;5162466;28;20429;-52
2022/05/06 01:51:53;;;;;;;125.35;52.00;;;;;;;13.88;58.85;102593.09;5161001;28;20515;-47
2022/05/06 01:54:27;;;;;;;119.20;48.65;;;;;;;14.00;59.08;102608.00;5166697;28;20922;-46
2022/05/06 01:57:01;;;;;;;117.77;48.10;;;;;;;14.03;59.01;102607.75;5158263;28;20516;-45
2022/05/06 01:59:33;;;;;;;96.45;40.65;;;;;;;13.97;58.98;102602.94;5162703;28;20903;-49
2022/05/06 02:02:06;;;;;;;72.25;32.97;;;;;;;14.06;59.05;102618.09;5161433;28;20785;-49
2022/05/06 02:07:28;;;;;;;66.07;28.48;;;;;;;14.04;59.20;102614.72;5163512;28;20805;-47
2022/05/06 02:10:06;;;;;;;61.40;26.40;;;;;;;13.97;59.22;102614.41;5163897;28;20791;-47
2022/05/06 02:12:39;;;;;;;53.00;27.38;;;;;;;13.45;59.22;102540.91;5165092;28;20393;-46
2022/05/06 02:15:12;;;;;;;53.55;25.90;;;;;;;13.88;59.38;102619.66;5164715;28;20417;-45
2022/05/06 02:17:45;;;;;;;56.17;26.05;;;;;;;13.15;59.40;102505.25;5166525;28;20417;-48
2022/05/06 02:20:17;;;;;;;63.85;27.63;;;;;;;13.61;59.59;102597.88;5164296;28;20568;-50
2022/05/06 02:22:49;;;;;;;59.85;30.10;;;;;;;13.72;59.53;102612.94;5161397;28;20889;-48
2022/05/06 02:25:23;;;;;;;59.13;28.13;;;;;;;13.71;59.59;102629.00;5165726;28;20432;-50
2022/05/06 02:27:56;;;;;;;57.95;27.40;;;;;;;13.71;59.56;102616.56;5167218;28;20518;-48
2022/05/06 02:33:24;;;;;;;61.17;28.98;;;;;;;13.62;59.64;102630.59;5161356;28;20413;-48
2022/05/06 02:35:56;;;;;;;63.47;29.17;;;;;;;13.54;59.88;102625.09;5162851;28;20905;-47
2022/05/06 02:38:29;;;;;;;63.63;28.83;;;;;;;13.54;59.63;102620.59;5164379;28;20424;-51
2022/05/06 02:41:03;;;;;;;43.63;22.80;;;;;;;13.57;59.58;102632.78;5165545;28;20420;-49
2022/05/06 02:43:37;;;;;;;46.33;24.15;;;;;;;13.59;59.67;102630.84;5166989;28;20433;-48
2022/05/06 02:46:09;;;;;;;46.83;23.58;;;;;;;13.59;59.86;102631.72;5159959;28;22319;-50
2022/05/06 02:48:41;;;;;;;84.35;22.40;;;;;;;13.55;59.80;102621.44;5166746;28;20397;-51
2022/05/06 02:51:14;;;;;;;53.17;25.40;;;;;;;13.46;59.91;102617.72;5165347;28;20496;-51
2022/05/06 02:53:46;;;;;;;66.28;21.05;;;;;;;13.54;59.76;102620.59;5162911;28;20424;-49
2022/05/06 02:56:20;;;;;;;53.10;17.10;;;;;;;13.43;59.87;102619.78;5165597;28;21015;-51
2022/05/06 02:58:52;;;;;;;35.65;17.05;;;;;;;13.43;59.98;102628.59;5161639;28;20423;-51
2022/05/06 03:01:25;;;;;;;30.02;18.13;;;;;;;13.35;59.86;102615.97;5163934;28;20432;-47
2022/05/06 03:03:58;;;;;;;51.20;17.35;;;;;;;13.42;59.87;102615.47;5166054;28;21358;-51
2022/05/06 03:06:30;;;;;;;34.05;18.52;;;;;;;13.38;59.97;102614.88;5160882;28;20427;-50
2022/05/06 03:09:02;;;;;;;30.48;19.30;;;;;;;13.37;59.82;102619.31;5164681;28;20459;-48
2022/05/06 03:11:36;;;;;;;29.10;18.75;;;;;;;13.37;60.07;102614.00;5164079;28;20508;-51
2022/05/06 03:14:09;;;;;;;34.80;18.45;;;;;;;13.32;59.92;102610.06;5166648;28;20452;-47
2022/05/06 03:16:41;;;;;;;27.93;18.20;;;;;;;13.39;59.95;102619.22;5165073;28;20416;-49
2022/05/06 03:19:13;;;;;;;33.10;19.20;;;;;;;13.37;59.85;102603.38;5162993;28;20500;-46
2022/05/06 03:21:51;;;;;;;32.17;18.30;;;;;;;13.38;59.91;102615.72;5165480;28;20433;-47
2022/05/06 03:24:24;;;;;;;34.67;18.45;;;;;;;13.40;59.99;102612.09;5156431;28;20434;-46
2022/05/06 03:26:57;;;;;;;44.58;22.08;;;;;;;13.27;59.89;102599.81;5165477;28;20730;-48
2022/05/06 03:29:30;;;;;;;41.97;22.90;;;;;;;13.34;59.87;102601.00;5159647;28;20860;-50
2022/05/06 03:32:03;;;;;;;30.73;15.80;;;;;;;13.37;59.97;102606.03;5159374;28;20434;-47
2022/05/06 03:34:35;;;;;;;25.67;14.27;;;;;;;13.30;59.77;102610.19;5163043;28;20531;-49
2022/05/06 03:37:08;;;;;;;35.25;15.27;;;;;;;13.22;60.06;102609.91;5161579;28;20494;-47
2022/05/06 03:39:40;;;;;;;33.67;16.85;;;;;;;13.15;60.08;102608.72;5160209;28;20408;-50
2022/05/06 03:42:14;;;;;;;25.35;17.38;;;;;;;13.10;60.21;102609.09;5161810;28;20504;-48
2022/05/06 03:44:47;;;;;;;29.75;18.60;;;;;;;13.04;60.18;102603.47;5163424;28;20784;-50
2022/05/06 03:47:19;;;;;;;38.78;20.20;;;;;;;13.02;60.15;102606.22;5157535;28;20768;-47
2022/05/06 03:51:20;;;;;;;59.80;20.13;;;;;;;12.90;60.21;102602.72;5160758;28;20495;-45
2022/05/06 03:52:44;;;;;;;44.43;21.73;;;;;;;12.80;60.43;102601.78;5164753;28;20412;-48
2022/05/06 03:55:16;;;;;;;40.35;22.13;;;;;;;12.73;60.44;102600.59;5165408;28;20506;-45
2022/05/06 03:57:50;;;;;;;39.63;22.83;;;;;;;12.71;60.63;102605.16;5163994;28;20412;-46
2022/05/06 04:00:23;;;;;;;41.60;23.10;;;;;;;12.78;60.37;102614.31;5161067;28;20415;-47
2022/05/06 04:02:56;;;;;;;43.72;22.58;;;;;;;12.81;60.17;102603.44;5156243;28;20851;-48
2022/05/06 04:05:28;;;;;;;47.88;24.55;;;;;;;12.54;60.25;102568.50;5162352;28;20411;-47
2022/05/06 04:08:01;;;;;;;47.45;22.23;;;;;;;12.68;60.19;102590.31;5163643;28;20416;-46
2022/05/06 04:10:33;;;;;;;51.80;23.67;;;;;;;12.78;60.08;102605.50;5163855;28;20460;-49
2022/05/06 04:13:07;;;;;;;43.05;23.30;;;;;;;12.79;60.18;102617.78;5158187;28;20521;-47
2022/05/06 04:15:40;;;;;;;46.45;20.90;;;;;;;12.68;60.32;102610.69;5159782;28;20401;-47
2022/05/06 04:18:12;;;;;;;39.13;22.02;;;;;;;12.68;60.44;102618.66;5164011;28;20907;-46
2022/05/06 04:23:37;;;;;;;46.77;20.83;;;;;;;12.68;60.45;102629.25;5160539;28;20425;-46
2022/05/06 04:26:11;;;;;;;43.55;21.27;;;;;;;12.65;60.31;102624.19;5166707;28;21960;-47
2022/05/06 04:28:45;;;;;;;36.75;22.52;;;;;;;12.38;60.36;102580.31;5165830;28;20761;-46
2022/05/06 04:31:17;;;;;;;40.72;21.77;;;;;;;12.64;60.43;102623.34;5162347;28;20416;-52
2022/05/06 04:33:49;;;;;;;36.33;21.25;;;;;;;12.69;60.29;102617.66;5157991;28;20423;-45
2022/05/06 04:36:22;;;;;;;43.70;23.02;;;;;;;12.46;60.40;102585.88;5165288;28;20443;-47
2022/05/06 04:38:55;;;;;;;39.30;22.05;;;;;;;12.62;60.51;102619.97;5164998;28;20413;-48
2022/05/06 04:41:28;;;;;;;42.65;24.05;;;;;;;12.70;60.53;102622.03;5167132;28;20429;-47
2022/05/06 04:44:02;;;;;;;49.23;23.37;;;;;;;12.74;60.37;102623.47;5166250;28;20896;-49
2022/05/06 04:46:34;;;;;;;50.05;24.83;;;;;;;12.65;60.41;102621.53;5166479;28;20935;-49
2022/05/06 04:49:06;;;;;;;44.63;23.70;;;;;;;12.69;60.66;102636.22;5166126;28;20420;-46
2022/05/06 04:51:39;;;;;;;49.28;21.88;;;;;;;12.51;60.62;102611.16;5164901;28;20508;-49
2022/05/06 04:54:11;;;;;;;46.92;21.48;;;;;;;12.35;60.73;102601.75;5164990;28;20488;-48
2022/05/06 04:56:43;;;;;;;37.90;21.05;;;;;;;12.47;60.67;102631.75;5165997;28;20409;-50
2022/05/06 04:59:17;;;;;;;33.00;19.95;;;;;;;12.45;60.85;102621.28;5165193;28;20488;-47
2022/05/06 05:01:50;;;;;;;37.83;21.77;;;;;;;12.59;60.92;102648.53;5162524;28;20432;-44
2022/05/06 05:04:27;;;;;;;43.40;20.10;;;;;;;12.52;60.66;102632.25;5168307;28;20429;-48
2022/05/06 05:07:00;;;;;;;38.80;20.95;;;;;;;12.59;60.75;102646.72;5165855;28;20417;-48
2022/05/06 05:09:32;;;;;;;36.63;20.70;;;;;;;12.60;60.92;102647.53;5165081;28;20413;-50
2022/05/06 05:12:07;;;;;;;38.45;20.15;;;;;;;12.62;60.67;102650.94;5165105;28;20432;-50
2022/05/06 05:14:41;;;;;;;36.55;20.73;;;;;;;12.55;60.96;102636.47;5166104;28;20415;-48
2022/05/06 05:17:14;;;;;;;32.20;18.73;;;;;;;12.66;60.77;102647.91;5164409;28;20420;-47
2022/05/06 05:19:46;;;;;;;31.48;17.33;;;;;;;12.72;60.69;102649.25;5165516;28;20432;-48
2022/05/06 05:22:19;;;;;;;27.83;13.73;;;;;;;12.75;60.60;102640.22;5163457;28;20514;-47
2022/05/06 05:24:51;;;;;;;22.00;14.48;;;;;;;12.64;60.73;102633.94;5160184;28;20584;-52
2022/05/06 05:27:23;;;;;;;24.08;15.45;;;;;;;12.80;60.83;102662.75;5166892;28;20452;-46
2022/05/06 05:30:01;;;;;;;38.67;17.05;;;;;;;12.84;60.85;102666.84;5165300;28;20420;-46
2022/05/06 05:32:33;;;;;;;27.65;16.67;;;;;;;12.82;60.90;102652.03;5162998;28;20928;-47
2022/05/06 05:35:07;;;;;;;28.55;16.92;;;;;;;12.85;60.96;102654.44;5163644;28;20448;-46
2022/05/06 05:37:40;;;;;;;33.13;17.13;;;;;;;12.85;60.91;102657.94;5161386;28;20800;-50
2022/05/06 05:40:15;;;;;;;37.72;17.50;;;;;;;12.87;61.02;102666.59;5164683;28;20404;-47
2022/05/06 05:42:47;;;;;;;29.02;18.42;;;;;;;12.85;60.95;102667.69;5170054;28;20456;-47
2022/05/06 05:48:21;;;;;;;23.02;15.57;;;;;;;13.05;60.93;102668.78;5172085;28;20409;-47
2022/05/06 05:50:53;;;;;;;22.85;14.57;;;;;;;13.14;60.86;102668.06;5159743;28;21008;-50
2022/05/06 05:53:26;;;;;;;18.27;12.60;;;;;;;13.19;60.76;102663.22;5151050;28;20842;-47
2022/05/06 05:55:58;;;;;;;17.55;12.50;;;;;;;13.30;60.82;102663.25;5170074;28;20413;-47
2022/05/06 05:58:31;;;;;;;17.40;11.70;;;;;;;13.44;60.79;102653.31;5169183;28;20500;-52
2022/05/06 06:01:06;;;;;;;15.83;11.47;;;;;;;13.48;60.73;102650.31;5164548;28;20487;-52
2022/05/06 06:03:38;;;;;;;18.40;10.98;;;;;;;13.50;60.75;102642.22;5160399;28;20443;-47
2022/05/06 06:06:11;;;;;;;15.52;11.85;;;;;;;13.71;60.75;102664.34;5158734;28;20847;-50
2022/05/06 06:08:43;;;;;;;18.23;11.23;;;;;;;13.79;61.06;102659.25;5156096;28;20416;-48
2022/05/06 06:11:17;;;;;;;20.70;12.60;;;;;;;13.91;60.66;102661.88;5168668;28;20842;-49
2022/05/06 06:13:49;;;;;;;23.27;13.63;;;;;;;13.88;60.83;102651.53;5167723;28;20424;-47
2022/05/06 06:16:24;;;;;;;24.37;13.63;;;;;;;14.00;60.71;102661.13;5164081;28;20541;-50
2022/05/06 06:18:58;;;;;;;27.37;13.87;;;;;;;14.14;60.52;102658.13;5147795;28;20857;-50
2022/05/06 06:21:30;;;;;;;17.58;10.60;;;;;;;14.24;60.64;102658.19;5147428;28;20434;-47
2022/05/06 06:24:03;;;;;;;16.23;10.37;;;;;;;14.35;60.19;102647.53;5149135;28;20444;-49
2022/05/06 06:26:36;;;;;;;13.98;9.38;;;;;;;14.54;60.06;102657.47;5155507;28;20452;-47
2022/05/06 06:29:08;;;;;;;16.23;8.95;;;;;;;14.67;59.89;102652.75;5167559;28;20475;-50
2022/05/06 06:31:42;;;;;;;13.93;9.45;;;;;;;14.87;59.69;102656.38;5166218;28;20420;-50
2022/05/06 06:34:14;;;;;;;27.30;12.93;;;;;;;15.11;59.40;102653.38;5162556;28;20933;-50
2022/05/06 06:36:47;;;;;;;26.15;15.90;;;;;;;15.37;59.14;102636.91;5165038;28;20496;-49
2022/05/06 06:39:19;;;;;;;23.92;15.23;;;;;;;15.67;59.02;102666.16;5163794;28;20460;-51
2022/05/06 06:41:51;;;;;;;24.23;15.18;;;;;;;15.67;58.82;102655.50;5160225;28;20427;-54
2022/05/06 06:44:24;;;;;;;19.40;14.07;;;;;;;15.92;58.69;102663.91;5152638;28;20418;-52
2022/05/06 06:46:57;;;;;;;19.67;13.55;;;;;;;16.23;58.32;102661.06;5163057;28;20636;-51
2022/05/06 06:49:30;;;;;;;16.25;11.60;;;;;;;16.80;57.84;102662.78;5162912;28;20418;-49
2022/05/06 06:52:03;;;;;;;20.35;10.60;;;;;;;17.51;57.09;102670.16;5165470;28;20518;-49
2022/05/06 06:54:35;;;;;;;18.90;8.48;;;;;;;18.81;55.77;102658.00;5167494;28;20432;-50
2022/05/06 06:57:08;;;;;;;18.80;9.10;;;;;;;19.40;55.24;102663.44;5165333;28;20417;-48
2022/05/06 06:59:40;;;;;;;16.23;8.57;;;;;;;20.40;53.99;102656.94;5156210;28;20886;-53
2022/05/06 07:02:14;;;;;;;14.55;6.75;;;;;;;20.75;52.98;102605.69;5164564;28;20421;-49
2022/05/06 07:04:51;;;;;;;13.43;6.18;;;;;;;21.49;52.54;102660.75;5152297;28;20462;-52
2022/05/06 07:13:02;;;;;;;10.18;6.65;;;;;;;25.12;48.16;102660.84;5166796;28;20445;-55
2022/05/06 07:15:35;;;;;;;11.10;6.50;;;;;;;26.04;47.13;102662.09;5167948;28;20428;-56
2022/05/06 07:18:09;;;;;;;14.65;6.00;;;;;;;26.78;46.17;102654.69;5167901;28;20435;-56
2022/05/06 07:20:43;;;;;;;9.98;5.82;;;;;;;27.41;45.17;102635.84;5171254;28;21029;-55
2022/05/06 07:23:15;;;;;;;9.40;5.88;;;;;;;28.10;44.48;102660.41;5156736;28;20760;-55
2022/05/06 07:25:47;;;;;;;10.33;5.57;;;;;;;28.47;43.92;102653.97;5157576;28;21099;-57
2022/05/06 07:28:20;;;;;;;7.38;5.25;;;;;;;28.82;43.36;102658.78;5152696;28;20427;-51
2022/05/06 07:30:52;;;;;;;7.13;4.97;;;;;;;28.99;42.96;102658.16;5163150;28;20425;-56
2022/05/06 07:33:26;;;;;;;7.82;4.90;;;;;;;29.26;42.62;102664.94;5159151;28;20437;-57
2022/05/06 07:35:59;;;;;;;14.30;5.10;;;;;;;29.51;42.00;102655.78;5160522;28;20439;-57
2022/05/06 07:38:32;;;;;;;11.27;4.40;;;;;;;29.56;41.66;102648.59;5156101;28;20523;-56
2022/05/06 07:41:05;;;;;;;8.25;4.32;;;;;;;29.51;41.93;102651.16;5165130;28;20429;-54
2022/05/06 07:43:37;;;;;;;11.27;3.90;;;;;;;29.40;41.60;102654.72;5166362;28;20524;-57
2022/05/06 07:46:10;;;;;;;11.13;5.80;;;;;;;29.31;41.55;102664.25;5163639;28;24422;-53
2022/05/06 07:48:43;;;;;;;10.68;6.10;;;;;;;29.38;41.26;102657.66;5158655;28;20905;-57
2022/05/06 07:51:16;;;;;;;13.98;5.18;;;;;;;29.48;41.03;102648.09;5163247;28;20427;-55
2022/05/06 07:53:51;;;;;;;10.07;4.03;;;;;;;29.62;40.73;102652.31;5157266;28;20423;-57
2022/05/06 07:56:24;;;;;;;8.02;3.90;;;;;;;29.60;40.64;102648.94;5159662;28;20536;-55
2022/05/06 07:58:57;;;;;;;11.48;4.68;;;;;;;29.46;40.71;102642.06;5163149;28;20451;-57
2022/05/06 08:04:37;;;;;;;8.40;4.47;;;;;;;29.32;40.90;102641.41;5161923;28;21008;-55
2022/05/06 08:07:10;;;;;;;7.68;3.65;;;;;;;29.16;40.65;102641.00;5158648;28;20425;-56
2022/05/06 08:09:43;;;;;;;10.32;4.10;;;;;;;29.10;40.68;102638.38;5162147;28;20435;-55
2022/05/06 08:12:15;;;;;;;8.27;3.17;;;;;;;29.04;40.76;102633.88;5158017;28;20543;-57
2022/05/06 08:14:48;;;;;;;5.60;3.50;;;;;;;28.88;40.73;102632.59;5161630;28;20416;-57
2022/05/06 08:17:20;;;;;;;6.65;3.08;;;;;;;28.73;40.81;102643.84;5158609;28;20421;-48
2022/05/06 08:19:55;;;;;;;7.28;3.00;;;;;;;28.52;40.86;102636.97;5162811;28;20555;-54
2022/05/06 08:22:28;;;;;;;5.43;2.90;;;;;;;28.36;41.13;102635.66;5161046;28;20738;-54
2022/05/06 08:25:00;;;;;;;6.20;3.13;;;;;;;28.28;41.03;102633.25;5157327;28;20502;-56
2022/05/06 08:27:38;;;;;;;5.70;2.85;;;;;;;28.17;40.95;102639.41;5154057;28;20443;-55
2022/05/06 08:30:13;;;;;;;9.65;2.90;;;;;;;27.97;40.99;102640.44;5161371;28;20408;-53
2022/05/06 08:32:46;;;;;;;5.97;2.58;;;;;;;27.84;40.79;102635.09;5163071;28;20580;-55
2022/05/06 08:35:20;;;;;;;3.57;2.57;;;;;;;27.79;40.75;102629.53;5158935;28;20960;-53
2022/05/06 08:37:52;;;;;;;3.63;2.83;;;;;;;27.69;40.80;102634.59;5153862;28;20532;-56
2022/05/06 08:40:26;;;;;;;4.22;2.88;;;;;;;27.57;40.61;102635.31;5158382;28;20522;-58
2022/05/06 08:42:59;;;;;;;7.07;3.10;;;;;;;27.20;40.41;102558.34;5163131;28;20408;-57
2022/05/06 08:51:16;;;;;;;9.82;4.07;;;;;;;27.26;40.40;102638.03;5156925;28;20905;-54
2022/05/06 08:53:49;;;;;;;7.68;4.63;;;;;;;26.98;40.36;102633.75;5160785;28;20433;-57
2022/05/06 08:56:22;;;;;;;5.45;4.22;;;;;;;26.84;40.40;102635.69;5159089;28;20971;-54
2022/05/06 08:58:54;;;;;;;8.80;5.50;;;;;;;26.60;40.38;102637.25;5151165;28;20753;-53
2022/05/06 09:01:26;;;;;;;6.82;5.10;;;;;;;26.42;40.34;102637.06;5154517;28;20850;-51
2022/05/06 09:03:59;;;;;;;7.25;5.47;;;;;;;26.40;40.30;102639.13;5154529;28;20433;-51
2022/05/06 09:06:33;;;;;;;14.47;5.87;;;;;;;26.33;39.95;102612.06;5154622;28;20527;-56
2022/05/06 09:09:05;;;;;;;9.87;5.27;;;;;;;26.30;39.79;102611.66;5154127;28;20424;-52
2022/05/06 09:17:20;;;;;;;7.60;5.65;;;;;;;25.90;39.22;102617.13;5152329;28;20741;-54
2022/05/06 09:19:53;;;;;;;11.48;6.35;;;;;;;25.99;39.34;102629.41;5157612;28;20424;-54
2022/05/06 09:22:31;;;;;;;9.30;6.28;;;;;;;25.68;39.41;102606.47;5159230;28;20514;-53
2022/05/06 09:25:04;;;;;;;10.37;6.30;;;;;;;25.72;39.14;102631.25;5158255;28;20433;-54
2022/05/06 09:27:37;;;;;;;9.82;6.03;;;;;;;25.61;38.85;102602.94;5155632;28;20971;-55
2022/05/06 09:30:12;;;;;;;10.30;6.20;;;;;;;25.88;38.71;102624.63;5157642;28;20428;-55
2022/05/06 09:32:46;;;;;;;10.60;6.17;;;;;;;26.12;38.27;102626.69;5155779;28;20963;-53
2022/05/06 09:35:19;;;;;;;8.45;6.07;;;;;;;26.20;37.79;102614.78;5148581;28;20624;-55
2022/05/06 09:37:53;;;;;;;14.70;6.70;;;;;;;26.26;37.69;102632.06;5151840;28;20943;-55
2022/05/06 09:40:32;;;;;;;7.57;5.95;;;;;;;26.12;37.68;102625.84;5155981;28;20412;-54
2022/05/06 09:43:17;;;;;;;9.60;6.55;;;;;;;26.03;37.44;102629.81;5150022;28;20508;-54
2022/05/06 09:45:50;;;;;;;14.57;7.40;;;;;;;25.81;37.41;102610.22;5155852;28;20412;-54
2022/05/06 09:48:22;;;;;;;11.20;6.45;;;;;;;25.89;37.51;102632.53;5154280;28;20419;-53
2022/05/06 09:50:54;;;;;;;9.57;7.07;;;;;;;25.59;37.49;102610.41;5153880;28;20499;-52
2022/05/06 09:53:36;;;;;;;11.35;7.90;;;;;;;25.63;37.30;102617.06;5153901;28;20427;-52
2022/05/06 09:56:09;;;;;;;10.65;7.18;;;;;;;25.70;37.30;102612.50;5153635;28;20429;-54
2022/05/06 09:58:41;;;;;;;7.90;6.80;;;;;;;25.62;37.23;102601.91;5154488;28;20524;-52
2022/05/06 10:01:18;;;;;;;9.23;6.90;;;;;;;25.67;37.06;102602.09;5153587;28;20533;-52
2022/05/06 10:03:53;;;;;;;11.50;8.27;;;;;;;25.77;36.91;102602.53;5154931;28;20876;-46
2022/05/06 10:06:26;;;;;;;10.50;8.43;;;;;;;25.88;36.74;102600.25;5154034;28;21010;-54
2022/05/06 10:09:02;;;;;;;12.68;7.78;;;;;;;25.93;36.29;102600.47;5154023;28;20428;-51
2022/05/06 10:11:35;;;;;;;10.38;8.25;;;;;;;25.83;36.31;102603.59;5154447;28;20483;-56
2022/05/06 10:14:09;;;;;;;10.90;7.97;;;;;;;25.87;36.26;102598.59;5155849;28;21634;-49
2022/05/06 10:16:42;;;;;;;14.35;8.57;;;;;;;25.80;36.29;102595.88;5146176;28;20465;-51
2022/05/06 10:19:27;;;;;;;10.13;7.90;;;;;;;25.80;36.26;102592.31;5150192;28;20654;-51
2022/05/06 10:22:00;;;;;;;11.85;8.13;;;;;;;25.91;36.00;102597.13;5152084;28;20424;-53
2022/05/06 10:24:49;;;;;;;14.93;8.47;;;;;;;25.59;36.27;102569.84;5156484;28;20420;-50
2022/05/06 10:32:25;;;;;;;14.23;8.77;;;;;;;25.75;36.03;102596.47;5152341;28;21163;-46
2022/05/06 10:33:24;;;;;;;11.33;8.57;;;;;;;25.80;35.80;102595.00;5149700;28;20812;-55
2022/05/06 10:35:56;;;;;;;24.23;9.77;;;;;;;25.79;35.72;102574.41;5156506;28;20429;-56
2022/05/06 10:38:29;;;;;;;12.40;8.18;;;;;;;26.03;35.37;102589.22;5157133;28;20422;-53
2022/05/06 10:41:07;;;;;;;11.73;7.68;;;;;;;26.28;35.04;102581.25;5156067;28;20778;-51
2022/05/06 10:43:53;;;;;;;14.57;8.93;;;;;;;26.43;34.82;102579.94;5154980;28;20448;-53
2022/05/06 10:46:43;;;;;;;11.63;8.77;;;;;;;26.50;34.73;102584.53;5150627;28;20431;-53
2022/05/06 10:49:50;;;;;;;12.80;8.05;;;;;;;26.57;34.55;102569.06;5154851;28;21006;-52
2022/05/06 10:52:45;;;;;;;12.52;7.75;;;;;;;26.65;34.34;102577.78;5148970;28;20468;-51
2022/05/06 10:55:21;;;;;;;10.85;7.88;;;;;;;26.72;34.19;102569.63;5149418;28;20475;-50
2022/05/06 10:58:06;;;;;;;11.32;8.00;;;;;;;26.78;33.83;102573.38;5149083;28;20420;-52
2022/05/06 11:00:41;;;;;;;11.82;8.23;;;;;;;26.84;33.93;102581.47;5149068;28;20515;-54
2022/05/06 11:03:17;;;;;;;14.00;8.00;;;;;;;26.89;33.82;102583.53;5150884;28;20511;-54
2022/05/06 11:05:53;;;;;;;11.68;7.22;;;;;;;26.98;33.40;102565.97;5147904;28;20617;-53
2022/05/06 11:08:34;;;;;;;11.85;6.72;;;;;;;27.24;33.37;102585.84;5150740;28;20443;-55
2022/05/06 11:11:17;;;;;;;11.32;7.75;;;;;;;27.33;33.12;102581.84;5152742;28;20519;-55
2022/05/06 11:13:53;;;;;;;15.00;7.83;;;;;;;27.36;32.99;102579.50;5143402;28;20504;-51
2022/05/06 11:16:25;;;;;;;12.10;7.88;;;;;;;27.36;32.96;102573.25;5148245;28;20431;-54
2022/05/06 11:19:02;;;;;;;11.60;7.65;;;;;;;27.34;32.84;102569.91;5150082;28;20884;-55
2022/05/06 11:21:34;;;;;;;10.27;7.73;;;;;;;27.27;32.81;102558.28;5154177;28;20511;-55
2022/05/06 11:24:17;;;;;;;13.60;8.23;;;;;;;27.31;32.62;102564.94;5150562;28;20462;-54
2022/05/06 11:26:49;;;;;;;11.60;7.45;;;;;;;27.29;32.52;102567.88;5150659;28;20566;-55
2022/05/06 11:29:23;;;;;;;11.35;7.38;;;;;;;27.29;32.45;102561.63;5135783;28;21338;-53
2022/05/06 11:31:56;;;;;;;10.73;7.88;;;;;;;27.28;32.40;102559.94;5150357;28;20885;-57
2022/05/06 11:34:29;;;;;;;13.25;7.75;;;;;;;27.38;32.21;102554.88;5152676;28;20428;-58
2022/05/06 11:37:01;;;;;;;11.88;7.38;;;;;;;27.39;32.17;102550.28;5156904;28;20800;-57
2022/05/06 11:39:34;;;;;;;11.10;7.90;;;;;;;27.47;32.09;102558.13;5154085;28;20429;-53
2022/05/06 11:42:24;;;;;;;14.10;8.00;;;;;;;27.47;32.04;102553.56;5167235;28;20452;-53
2022/05/06 11:48:05;;;;;;;9.48;7.72;;;;;;;27.47;31.88;102559.00;5080681;29;20493;-53
2022/05/06 11:50:40;;;;;;;10.02;7.38;;;;;;;27.48;31.87;102557.94;5155025;28;20492;-54
2022/05/06 11:53:14;;;;;;;13.57;7.88;;;;;;;27.17;31.85;102503.72;5163996;28;20952;-56
2022/05/06 11:55:47;;;;;;;11.50;7.45;;;;;;;27.52;31.72;102540.13;5166225;28;20470;-54
2022/05/06 11:58:20;;;;;;;15.43;7.78;;;;;;;27.63;31.63;102551.34;5155129;28;20438;-55
2022/05/06 12:00:55;;;;;;;11.73;6.80;;;;;;;27.38;31.76;102511.47;5160900;28;20416;-53
2022/05/06 12:03:29;;;;;;;9.70;7.40;;;;;;;27.27;31.84;102539.31;5170376;28;20460;-54
2022/05/06 12:06:04;;;;;;;16.30;8.45;;;;;;;26.93;31.97;102513.44;5168205;28;20507;-55
2022/05/06 12:08:38;;;;;;;11.05;7.13;;;;;;;26.53;32.20;102500.94;5170721;28;20437;-52
2022/05/06 12:11:39;;;;;;;11.18;7.32;;;;;;;26.65;32.20;102539.84;5166539;28;20432;-55
2022/05/06 12:14:17;;;;;;;12.55;6.85;;;;;;;26.64;32.06;102527.38;5171321;28;20442;-54
2022/05/06 12:16:58;;;;;;;11.85;6.63;;;;;;;26.79;31.90;102545.19;5163726;28;20540;-55
2022/05/06 12:19:36;;;;;;;12.02;7.15;;;;;;;26.92;31.83;102553.28;5170842;28;20415;-55
2022/05/06 12:22:10;;;;;;;10.77;7.50;;;;;;;27.03;31.90;102544.44;5167080;28;20438;-56
2022/05/06 12:24:45;;;;;;;11.35;6.43;;;;;;;27.15;31.64;102550.03;5165646;28;20403;-56